Taiki Maru — JI3464 — position and weather

sailwx.info

Track history (hours):
 
Tides and Currents Weather Stations Pressure Air Temp Water Temp Dewpoint Dewpoint Depression Visibility Wind Speed Wind Dir Waves Ship Positions

Taiki Maru

Last reported at 2015-May-26 03:22 UTC. Time now 2015-May-26 03:41 UTC.
Position N 34°40' E 135°27'.

Length 93 m; draft 7.2 m.

Type: Cargo ship. MMSI: 431300622.

Date/timePositionNaut miles runAvg speedWind from/ knotsBaromVisibWave heightAir tempDewpointWater temp
2015-May-26 03:22N 34°40' E 135°27'0 0.0
2015-May-26 02:28N 34°40' E 135°27'0 0.0
2015-May-26 01:28N 34°40' E 135°27'0 0.0
2015-May-26 00:28N 34°40' E 135°27'0 0.0
2015-May-25 23:28N 34°40' E 135°27'1 1.3
2015-May-25 22:33N 34°39' E 135°26'6 6.1
2015-May-25 21:33N 34°36' E 135°20'8 7.7
2015-May-25 20:33N 34°36' E 135°10'1110.9
2015-May-25 19:33N 34°36' E 134°57'1311.3
2015-May-25 18:24N 34°40' E 134°42'4 0.1
2015-May-24 06:27N 34°39' E 134°47'1213.1
2015-May-24 05:34N 34°37' E 135°01'1212.2
2015-May-24 04:33N 34°25' E 135°03'1313.6
2015-May-24 03:33N 34°12' E 134°59'1413.6
2015-May-24 02:30N 33°58' E 134°59'20011.8
2015-May-23 09:34N 34°32' E 138°58'3313.2
2015-May-23 07:04N 34°56' E 139°25'712.6
2015-May-23 06:31N 35°00' E 139°32'1313.7
2015-May-23 05:33N 35°09' E 139°44'1111.1
2015-May-23 04:33N 35°20' E 139°43'1211.9
2015-May-23 03:33N 35°29' E 139°51'7 6.7
2015-May-23 02:33N 35°28' E 139°59'0 0.0
2015-May-23 01:31N 35°28' E 139°59'0 0.0
2015-May-23 00:31N 35°28' E 139°59'3 3.0
2015-May-22 23:33N 35°29' E 139°56'1211.7
2015-May-22 22:34N 35°26' E 139°42'3 2.7
2015-May-22 21:33N 35°29' E 139°40'0 0.0
2015-May-22 20:33N 35°29' E 139°40'0 0.0
2015-May-22 19:33N 35°29' E 139°40'0 0.0
2015-May-22 18:33N 35°29' E 139°40'0 0.0
2015-May-22 17:33N 35°29' E 139°40'0 0.0
2015-May-22 16:33N 35°29' E 139°40'0 0.0
2015-May-22 15:33N 35°29' E 139°40'0 0.0
2015-May-22 14:30N 35°29' E 139°40'0 0.0
2015-May-22 13:30N 35°29' E 139°40'0 0.0
2015-May-22 12:33N 35°29' E 139°40'0 0.0
2015-May-22 11:33N 35°29' E 139°40'0 0.0
2015-May-22 10:33N 35°29' E 139°40'0 0.0
2015-May-22 09:33N 35°29' E 139°40'0 0.0
2015-May-22 08:33N 35°29' E 139°40'0 0.0
2015-May-22 07:33N 35°29' E 139°40'0 0.0
2015-May-22 06:33N 35°29' E 139°40'0 0.0
2015-May-22 05:33N 35°29' E 139°40'0 0.0
2015-May-22 04:33N 35°29' E 139°40'0 0.0
2015-May-22 03:30N 35°29' E 139°40'0 0.0
2015-May-22 02:33N 35°29' E 139°40'0 0.0
2015-May-22 01:33N 35°29' E 139°40'0 0.0
2015-May-22 00:33N 35°29' E 139°40'2 1.5
2015-May-21 23:33N 35°27' E 139°41'2 2.2
2015-May-21 22:32N 35°25' E 139°42'0 0.1
2015-May-21 21:33N 35°25' E 139°42'5 4.8
2015-May-21 20:33N 35°21' E 139°43'1211.7
2015-May-21 19:33N 35°09' E 139°46'1211.5
2015-May-21 18:33N 35°01' E 139°37'1212.0
2015-May-21 17:32N 34°53' E 139°25'225 4.7
2015-May-19 17:33N 34°06' E 134°58'1414.3
2015-May-19 16:33N 34°21' E 135°00'1414.4
2015-May-19 15:33N 34°31' E 135°12'1413.5
2015-May-19 14:33N 34°39' E 135°25'2 1.7
2015-May-19 13:33N 34°40' E 135°27'0 0.0
2015-May-19 12:32N 34°40' E 135°27'0 0.0
2015-May-19 11:32N 34°40' E 135°27'0 0.0
2015-May-19 10:32N 34°40' E 135°27'0 0.0
2015-May-19 09:32N 34°40' E 135°27'0 0.0
2015-May-19 08:32N 34°40' E 135°27'0 0.0
2015-May-19 07:26N 34°40' E 135°27'0 0.0
2015-May-19 06:26N 34°40' E 135°27'0 0.0
2015-May-19 05:32N 34°40' E 135°27'0 0.0
2015-May-19 04:32N 34°40' E 135°27'4 4.0
2015-May-19 03:33N 34°38' E 135°23'4 3.7
2015-May-19 02:31N 34°36' E 135°19'0 0.0
2015-May-19 01:31N 34°36' E 135°19'0 0.0
2015-May-19 00:31N 34°36' E 135°19'0 0.0
2015-May-18 23:31N 34°36' E 135°19'0 0.0
2015-May-18 22:31N 34°36' E 135°19'0 0.0
2015-May-18 21:19N 34°36' E 135°19'0 0.0
2015-May-18 20:25N 34°36' E 135°19'0 0.1
2015-May-18 19:31N 34°36' E 135°19'0 0.1
2015-May-18 18:25N 34°36' E 135°19'0 0.0
2015-May-18 17:25N 34°36' E 135°19'0 0.0
2015-May-18 16:13N 34°36' E 135°19'1 1.4
2015-May-18 15:33N 34°36' E 135°18'1111.4
2015-May-18 14:33N 34°35' E 135°04'1210.9
2015-May-18 13:29N 34°38' E 134°50'22 0.9
2015-May-17 13:06N 34°41' E 134°23'0 0.0
2015-May-17 12:24N 34°41' E 134°23'0 0.0
2015-May-17 11:30N 34°41' E 134°23'14 4.4
2015-May-17 08:18N 34°41' E 134°41'1114.6
2015-May-17 07:32N 34°38' E 134°53'1110.8
2015-May-17 06:33N 34°33' E 135°05'1413.9
2015-May-17 05:33N 34°20' E 135°00'8 8.4
2015-May-17 04:33N 34°14' E 135°08'0 0.0
2015-May-17 03:27N 34°14' E 135°08'0 0.0
2015-May-17 02:33N 34°14' E 135°08'0 0.0
2015-May-17 01:33N 34°14' E 135°08'1 0.9
2015-May-17 00:34N 34°14' E 135°07'2 1.6
2015-May-16 23:31N 34°15' E 135°05'0 0.1
2015-May-16 22:28N 34°15' E 135°05'0 0.1
2015-May-16 21:28N 34°15' E 135°05'0 0.0
2015-May-16 20:31N 34°15' E 135°05'0 0.0
2015-May-16 19:33N 34°15' E 135°05'0 0.0
2015-May-16 18:33N 34°15' E 135°05'0 0.1
2015-May-16 17:33N 34°15' E 135°05'0 0.1
2015-May-16 16:33N 34°15' E 135°05'0 0.0
2015-May-16 15:33N 34°15' E 135°05'0 0.1
2015-May-16 14:33N 34°15' E 135°05'0 0.0
2015-May-16 13:33N 34°15' E 135°05'0 0.0
2015-May-16 12:33N 34°15' E 135°05'0 0.1
2015-May-16 11:33N 34°15' E 135°05'0 0.0
2015-May-16 10:27N 34°15' E 135°05'0 0.0
2015-May-16 09:33N 34°15' E 135°05'0 0.1
2015-May-16 08:34N 34°15' E 135°05'  
Track history (hours):
 
Tides and Currents Weather Stations Pressure Air Temp Water Temp Dewpoint Dewpoint Depression Visibility Wind Speed Wind Dir Waves Ship Positions

Taiki Maru

Last reported at 2015-May-26 03:22 UTC. Time now 2015-May-26 03:41 UTC.
Position N 34°40' E 135°27'.

Length 93 m; draft 7.2 m.

Type: Cargo ship. MMSI: 431300622.

Date/timePositionNaut miles runAvg speedWind from/ knotsBaromVisibWave heightAir tempDewpointWater temp
2015-May-26 03:22N 34°40' E 135°27'0 0.0
2015-May-26 02:28N 34°40' E 135°27'0 0.0
2015-May-26 01:28N 34°40' E 135°27'0 0.0
2015-May-26 00:28N 34°40' E 135°27'0 0.0
2015-May-25 23:28N 34°40' E 135°27'1 1.3
2015-May-25 22:33N 34°39' E 135°26'6 6.1
2015-May-25 21:33N 34°36' E 135°20'8 7.7
2015-May-25 20:33N 34°36' E 135°10'1110.9
2015-May-25 19:33N 34°36' E 134°57'1311.3
2015-May-25 18:24N 34°40' E 134°42'4 0.1
2015-May-24 06:27N 34°39' E 134°47'1213.1
2015-May-24 05:34N 34°37' E 135°01'1212.2
2015-May-24 04:33N 34°25' E 135°03'1313.6
2015-May-24 03:33N 34°12' E 134°59'1413.6
2015-May-24 02:30N 33°58' E 134°59'20011.8
2015-May-23 09:34N 34°32' E 138°58'3313.2
2015-May-23 07:04N 34°56' E 139°25'712.6
2015-May-23 06:31N 35°00' E 139°32'1313.7
2015-May-23 05:33N 35°09' E 139°44'1111.1
2015-May-23 04:33N 35°20' E 139°43'1211.9
2015-May-23 03:33N 35°29' E 139°51'7 6.7
2015-May-23 02:33N 35°28' E 139°59'0 0.0
2015-May-23 01:31N 35°28' E 139°59'0 0.0
2015-May-23 00:31N 35°28' E 139°59'3 3.0
2015-May-22 23:33N 35°29' E 139°56'1211.7
2015-May-22 22:34N 35°26' E 139°42'3 2.7
2015-May-22 21:33N 35°29' E 139°40'0 0.0
2015-May-22 20:33N 35°29' E 139°40'0 0.0
2015-May-22 19:33N 35°29' E 139°40'0 0.0
2015-May-22 18:33N 35°29' E 139°40'0 0.0
2015-May-22 17:33N 35°29' E 139°40'0 0.0
2015-May-22 16:33N 35°29' E 139°40'0 0.0
2015-May-22 15:33N 35°29' E 139°40'0 0.0
2015-May-22 14:30N 35°29' E 139°40'0 0.0
2015-May-22 13:30N 35°29' E 139°40'0 0.0
2015-May-22 12:33N 35°29' E 139°40'0 0.0
2015-May-22 11:33N 35°29' E 139°40'0 0.0
2015-May-22 10:33N 35°29' E 139°40'0 0.0
2015-May-22 09:33N 35°29' E 139°40'0 0.0
2015-May-22 08:33N 35°29' E 139°40'0 0.0
2015-May-22 07:33N 35°29' E 139°40'0 0.0
2015-May-22 06:33N 35°29' E 139°40'0 0.0
2015-May-22 05:33N 35°29' E 139°40'0 0.0
2015-May-22 04:33N 35°29' E 139°40'0 0.0
2015-May-22 03:30N 35°29' E 139°40'0 0.0
2015-May-22 02:33N 35°29' E 139°40'0 0.0
2015-May-22 01:33N 35°29' E 139°40'0 0.0
2015-May-22 00:33N 35°29' E 139°40'2 1.5
2015-May-21 23:33N 35°27' E 139°41'2 2.2
2015-May-21 22:32N 35°25' E 139°42'0 0.1
2015-May-21 21:33N 35°25' E 139°42'5 4.8
2015-May-21 20:33N 35°21' E 139°43'1211.7
2015-May-21 19:33N 35°09' E 139°46'1211.5
2015-May-21 18:33N 35°01' E 139°37'1212.0
2015-May-21 17:32N 34°53' E 139°25'225 4.7
2015-May-19 17:33N 34°06' E 134°58'1414.3
2015-May-19 16:33N 34°21' E 135°00'1414.4
2015-May-19 15:33N 34°31' E 135°12'1413.5
2015-May-19 14:33N 34°39' E 135°25'2 1.7
2015-May-19 13:33N 34°40' E 135°27'0 0.0
2015-May-19 12:32N 34°40' E 135°27'0 0.0
2015-May-19 11:32N 34°40' E 135°27'0 0.0
2015-May-19 10:32N 34°40' E 135°27'0 0.0
2015-May-19 09:32N 34°40' E 135°27'0 0.0
2015-May-19 08:32N 34°40' E 135°27'0 0.0
2015-May-19 07:26N 34°40' E 135°27'0 0.0
2015-May-19 06:26N 34°40' E 135°27'0 0.0
2015-May-19 05:32N 34°40' E 135°27'0 0.0
2015-May-19 04:32N 34°40' E 135°27'4 4.0
2015-May-19 03:33N 34°38' E 135°23'4 3.7
2015-May-19 02:31N 34°36' E 135°19'0 0.0
2015-May-19 01:31N 34°36' E 135°19'0 0.0
2015-May-19 00:31N 34°36' E 135°19'0 0.0
2015-May-18 23:31N 34°36' E 135°19'0 0.0
2015-May-18 22:31N 34°36' E 135°19'0 0.0
2015-May-18 21:19N 34°36' E 135°19'0 0.0
2015-May-18 20:25N 34°36' E 135°19'0 0.1
2015-May-18 19:31N 34°36' E 135°19'0 0.1
2015-May-18 18:25N 34°36' E 135°19'0 0.0
2015-May-18 17:25N 34°36' E 135°19'0 0.0
2015-May-18 16:13N 34°36' E 135°19'1 1.4
2015-May-18 15:33N 34°36' E 135°18'1111.4
2015-May-18 14:33N 34°35' E 135°04'1210.9
2015-May-18 13:29N 34°38' E 134°50'22 0.9
2015-May-17 13:06N 34°41' E 134°23'0 0.0
2015-May-17 12:24N 34°41' E 134°23'0 0.0
2015-May-17 11:30N 34°41' E 134°23'14 4.4
2015-May-17 08:18N 34°41' E 134°41'1114.6
2015-May-17 07:32N 34°38' E 134°53'1110.8
2015-May-17 06:33N 34°33' E 135°05'1413.9
2015-May-17 05:33N 34°20' E 135°00'8 8.4
2015-May-17 04:33N 34°14' E 135°08'0 0.0
2015-May-17 03:27N 34°14' E 135°08'0 0.0
2015-May-17 02:33N 34°14' E 135°08'0 0.0
2015-May-17 01:33N 34°14' E 135°08'1 0.9
2015-May-17 00:34N 34°14' E 135°07'2 1.6
2015-May-16 23:31N 34°15' E 135°05'0 0.1
2015-May-16 22:28N 34°15' E 135°05'0 0.1
2015-May-16 21:28N 34°15' E 135°05'0 0.0
2015-May-16 20:31N 34°15' E 135°05'0 0.0
2015-May-16 19:33N 34°15' E 135°05'0 0.0
2015-May-16 18:33N 34°15' E 135°05'0 0.1
2015-May-16 17:33N 34°15' E 135°05'0 0.1
2015-May-16 16:33N 34°15' E 135°05'0 0.0
2015-May-16 15:33N 34°15' E 135°05'0 0.1
2015-May-16 14:33N 34°15' E 135°05'0 0.0
2015-May-16 13:33N 34°15' E 135°05'0 0.0
2015-May-16 12:33N 34°15' E 135°05'0 0.1
2015-May-16 11:33N 34°15' E 135°05'0 0.0
2015-May-16 10:27N 34°15' E 135°05'0 0.0
2015-May-16 09:33N 34°15' E 135°05'0 0.1
2015-May-16 08:34N 34°15' E 135°05'  

Dump ship's entire track history